Terminal Aerodrome Forecast
Issued by NWS Albany, NY

Home | Current Version | Previous Version | Text Only | Print | Product List | Glossary On
Versions: 1 2 3 4 5 6 7 8 9 10 11 12 13 14 15 16 17 18 19 20 21 22 23 24
114
FTUS41 KALY 272323
TAFPOU
TAF
KPOU 272323Z 2800/2824 23011KT P6SM BKN110
     FM280900 00000KT P6SM OVC060
     FM281500 18005KT P6SM BKN060=

USA.gov is the U.S. government's official web portal to all federal, state and local government web resources and services.